createdAt,value
2023-04-02T00:00:37.580Z,101271.88
2023-04-02T00:05:55.076Z,101264.81
2023-04-02T00:11:02.470Z,101257.59
2023-04-02T00:16:08.693Z,101233.16
2023-04-02T00:21:26.290Z,101250.47
2023-04-02T00:26:45.924Z,101267.50
2023-04-02T00:31:52.032Z,101259.50
2023-04-02T00:36:55.331Z,101289.75
2023-04-02T00:42:05.432Z,101276.72
2023-04-02T00:47:17.877Z,101293.34
2023-04-02T00:52:25.681Z,101262.75
2023-04-02T00:57:28.954Z,101283.53
2023-04-02T01:02:36.008Z,101272.97
2023-04-02T01:07:55.346Z,101274.56
2023-04-02T01:13:22.843Z,101267.47
2023-04-02T01:18:40.070Z,101263.16
2023-04-02T01:23:56.478Z,101256.16
2023-04-02T01:29:16.958Z,101263.84
2023-04-02T01:34:25.162Z,101240.38
2023-04-02T01:39:41.584Z,101264.72
2023-04-02T01:44:53.562Z,101241.28
2023-04-02T01:50:24.685Z,101266.56
2023-04-02T01:55:51.021Z,101252.84
2023-04-02T02:01:02.852Z,101235.53
2023-04-02T02:06:07.694Z,101250.34
2023-04-02T02:11:16.790Z,101246.91
2023-04-02T02:16:20.038Z,101225.13
2023-04-02T02:21:47.734Z,101263.44
2023-04-02T02:27:05.344Z,101225.94
2023-04-02T02:32:13.364Z,101237.97
2023-04-02T02:37:28.925Z,101254.47
2023-04-02T02:42:48.479Z,101243.19
2023-04-02T02:47:54.029Z,101233.69
2023-04-02T02:52:59.680Z,101230.16
2023-04-02T02:58:14.775Z,101254.41
2023-04-02T03:03:34.609Z,101237.84
2023-04-02T03:08:49.604Z,101237.75
2023-04-02T03:14:08.444Z,101257.78
2023-04-02T03:19:21.059Z,101255.00
2023-04-02T03:24:34.397Z,101246.31
2023-04-02T03:29:42.960Z,101231.47
2023-04-02T03:35:00.643Z,101225.41
2023-04-02T03:40:15.612Z,101245.19
2023-04-02T03:45:24.309Z,101228.63
2023-04-02T03:50:45.633Z,101232.09
2023-04-02T03:55:49.861Z,101235.59
2023-04-02T04:01:12.743Z,101245.84
2023-04-02T04:06:40.620Z,101223.94
2023-04-02T04:11:51.170Z,101237.88
2023-04-02T04:17:10.193Z,101250.75
2023-04-02T04:22:20.502Z,101244.63
2023-04-02T04:28:12.136Z,101243.72
2023-04-02T04:33:29.385Z,101242.75
2023-04-02T04:38:41.144Z,101241.69
2023-04-02T04:43:56.566Z,101244.97
2023-04-02T04:49:08.755Z,101231.66
2023-04-02T04:54:15.470Z,101240.34
2023-04-02T04:59:29.966Z,101256.75
2023-04-02T05:04:39.518Z,101249.78
2023-04-02T05:09:55.728Z,101229.09
2023-04-02T05:15:22.140Z,101256.00
2023-04-02T05:20:34.647Z,101251.84
2023-04-02T05:25:49.799Z,101245.59
2023-04-02T05:31:15.634Z,101250.00
2023-04-02T05:36:46.921Z,101257.72
2023-04-02T05:42:01.976Z,101250.25
2023-04-02T05:47:25.712Z,101262.53
2023-04-02T05:52:34.512Z,101230.50
2023-04-02T05:58:21.392Z,101259.97
2023-04-02T06:03:44.991Z,101249.25
2023-04-02T06:08:58.061Z,101221.63
2023-04-02T06:14:03.809Z,101242.00
2023-04-02T06:19:14.022Z,101242.53
2023-04-02T06:24:22.667Z,101225.94
2023-04-02T06:29:39.899Z,101236.03
2023-04-02T06:34:47.259Z,101238.19
2023-04-02T06:39:52.730Z,101234.59
2023-04-02T06:44:56.610Z,101232.50
2023-04-02T06:50:48.228Z,101236.22
2023-04-02T06:56:51.164Z,101229.00
2023-04-02T07:02:13.523Z,101218.66
2023-04-02T07:07:18.567Z,101207.38
2023-04-02T07:12:25.561Z,101200.56
2023-04-02T07:17:29.332Z,101190.78
2023-04-02T07:22:32.338Z,101210.75
2023-04-02T07:27:38.162Z,101189.72
2023-04-02T07:32:41.688Z,101197.41
2023-04-02T07:37:44.721Z,101186.16
2023-04-02T07:42:47.809Z,101202.63
2023-04-02T07:47:50.829Z,101181.66
2023-04-02T07:52:53.843Z,101161.41
2023-04-02T07:57:58.983Z,101152.63
2023-04-02T08:03:01.963Z,101142.03
2023-04-02T08:08:05.076Z,101152.59
2023-04-02T08:13:08.251Z,101144.63
2023-04-02T08:18:13.875Z,101137.19
2023-04-02T08:23:18.304Z,101112.47
2023-04-02T08:28:22.665Z,101115.47
2023-04-02T08:33:26.443Z,101115.50
2023-04-02T08:38:29.414Z,101123.00
2023-04-02T08:43:41.059Z,101097.34
2023-04-02T08:48:49.550Z,101114.06
2023-04-02T08:53:55.966Z,101080.94
2023-04-02T08:59:04.224Z,101073.50
2023-04-02T09:04:15.783Z,101063.94
2023-04-02T09:09:20.386Z,101078.38
2023-04-02T09:14:45.151Z,101073.53
2023-04-02T09:20:02.074Z,101051.19
2023-04-02T09:25:12.624Z,101042.16
2023-04-02T09:30:33.585Z,101073.59
2023-04-02T09:35:54.761Z,101089.06
2023-04-02T09:40:59.100Z,101047.16
2023-04-02T09:46:36.823Z,101070.06
2023-04-02T09:51:39.781Z,101063.66
2023-04-02T09:57:01.501Z,101067.16
2023-04-02T10:02:06.289Z,101051.22
2023-04-02T10:07:31.027Z,101047.47
2023-04-02T10:12:39.942Z,101027.97
2023-04-02T10:17:44.490Z,101031.91
2023-04-02T10:22:47.731Z,101028.50
2023-04-02T10:28:02.754Z,101044.81
2023-04-02T10:33:13.444Z,101017.28
2023-04-02T10:38:31.757Z,101030.88
2023-04-02T10:43:43.937Z,101034.59
2023-04-02T10:48:57.696Z,101013.38
2023-04-02T10:54:14.437Z,101024.13
2023-04-02T10:59:27.766Z,100996.88
2023-04-02T11:04:42.007Z,101012.38
2023-04-02T11:09:49.069Z,100994.63
2023-04-02T11:14:54.464Z,100999.44
2023-04-02T11:20:35.805Z,101000.66
2023-04-02T11:25:39.187Z,100994.78
2023-04-02T11:30:42.887Z,101005.50
2023-04-02T11:35:45.838Z,100990.28
2023-04-02T11:40:51.047Z,101004.69
2023-04-02T11:45:57.364Z,100997.94
2023-04-02T11:51:05.022Z,100988.81
2023-04-02T11:56:32.820Z,101006.38
2023-04-02T12:02:10.410Z,101009.06
2023-04-02T12:07:35.168Z,100974.94
2023-04-02T12:12:39.663Z,100984.53
2023-04-02T12:17:42.721Z,100968.25
2023-04-02T12:22:51.600Z,100985.69
2023-04-02T12:28:11.092Z,100964.16
2023-04-02T12:33:28.081Z,100994.38
2023-04-02T12:38:37.112Z,100987.28
2023-04-02T12:43:40.368Z,100964.44
2023-04-02T12:48:43.412Z,100978.88
2023-04-02T12:53:52.155Z,100960.00
2023-04-02T12:58:59.982Z,100969.38
2023-04-02T13:04:12.642Z,100978.00
2023-04-02T13:09:43.132Z,100973.78
2023-04-02T13:14:46.217Z,100953.66
2023-04-02T13:19:49.195Z,100963.00
2023-04-02T13:24:56.633Z,100954.03
2023-04-02T13:30:08.490Z,100951.16
2023-04-02T13:35:11.467Z,100962.94
2023-04-02T13:40:16.569Z,100973.63
2023-04-02T13:45:30.389Z,100982.72
2023-04-02T13:50:35.273Z,100974.13
2023-04-02T13:55:42.451Z,100958.59
2023-04-02T14:00:46.469Z,100977.56
2023-04-02T14:06:02.527Z,100982.47
2023-04-02T14:11:23.928Z,100983.06
2023-04-02T14:16:48.416Z,100978.47
2023-04-02T14:22:15.736Z,100953.56
2023-04-02T14:27:44.737Z,100978.59
2023-04-02T14:33:10.266Z,100992.16
2023-04-02T14:38:16.350Z,100993.03
2023-04-02T14:43:37.471Z,100998.22
2023-04-02T14:49:15.428Z,100982.03
2023-04-02T14:54:28.681Z,100979.66
2023-04-02T14:59:37.178Z,100990.06
2023-04-02T15:04:51.371Z,100982.56
2023-04-02T15:10:11.576Z,100972.59
2023-04-02T15:15:40.471Z,100987.53
2023-04-02T15:21:00.270Z,100964.56
2023-04-02T15:26:10.377Z,100988.59
2023-04-02T15:31:15.079Z,100971.69
2023-04-02T15:36:33.180Z,100985.72
2023-04-02T15:41:43.001Z,100979.41
2023-04-02T15:46:51.865Z,100990.94
2023-04-02T15:52:13.083Z,100994.66
2023-04-02T15:57:28.110Z,100998.66
2023-04-02T16:02:51.470Z,100970.16
2023-04-02T16:08:32.518Z,100995.66
2023-04-02T16:13:37.495Z,100999.47
2023-04-02T16:18:43.204Z,101004.09
2023-04-02T16:23:46.350Z,101000.94
2023-04-02T16:28:51.891Z,101008.34
2023-04-02T16:34:08.443Z,101005.03
2023-04-02T16:39:36.208Z,101009.78
2023-04-02T16:45:12.912Z,100999.50
2023-04-02T16:50:21.932Z,101005.88
2023-04-02T16:55:41.067Z,101008.09
2023-04-02T17:00:53.346Z,101010.22
2023-04-02T17:06:06.471Z,101004.47
2023-04-02T17:11:21.799Z,101002.91
2023-04-02T17:16:45.725Z,100991.25
2023-04-02T17:21:53.190Z,101012.34
2023-04-02T17:27:11.687Z,100989.97
2023-04-02T17:32:30.437Z,100990.94
2023-04-02T17:37:47.700Z,101005.16
2023-04-02T17:43:18.053Z,100994.78
2023-04-02T17:48:56.184Z,100994.19
2023-04-02T17:54:04.821Z,100988.34
2023-04-02T17:59:26.621Z,101003.44
2023-04-02T18:04:57.736Z,100998.44
2023-04-02T18:10:28.100Z,100989.94
2023-04-02T18:15:33.730Z,100984.00
2023-04-02T18:21:31.967Z,100986.00
2023-04-02T18:26:43.435Z,100995.09
2023-04-02T18:31:46.661Z,101005.84
2023-04-02T18:37:12.951Z,100991.16
2023-04-02T18:42:43.391Z,100996.72
2023-04-02T18:47:55.286Z,100992.53
2023-04-02T18:52:58.558Z,100984.75
2023-04-02T18:58:10.406Z,100988.53
2023-04-02T19:03:20.907Z,100991.19
2023-04-02T19:08:48.288Z,100982.69
2023-04-02T19:13:51.726Z,100956.00
2023-04-02T19:19:03.690Z,100972.47
2023-04-02T19:24:21.617Z,100975.19
2023-04-02T19:29:27.207Z,100981.41
2023-04-02T19:34:40.285Z,100962.22
2023-04-02T19:39:55.856Z,100957.72
2023-04-02T19:44:59.213Z,100974.66
2023-04-02T19:50:02.255Z,100970.19
2023-04-02T19:55:05.721Z,100945.81
2023-04-02T20:00:12.037Z,100936.09
2023-04-02T20:05:14.966Z,100952.44
2023-04-02T20:10:17.846Z,100941.97
2023-04-02T20:15:20.843Z,100931.63
2023-04-02T20:20:23.820Z,100954.44
2023-04-02T20:25:26.997Z,100917.56
2023-04-02T20:30:32.888Z,100920.97
2023-04-02T20:35:37.939Z,100934.44
2023-04-02T20:40:41.833Z,100931.97
2023-04-02T20:45:54.902Z,100936.41
2023-04-02T20:50:59.101Z,100934.97
2023-04-02T20:56:10.450Z,100957.75
2023-04-02T21:01:22.404Z,100953.63
2023-04-02T21:06:28.044Z,100947.84
2023-04-02T21:11:31.191Z,100934.09
2023-04-02T21:16:34.314Z,100938.00
2023-04-02T21:21:39.045Z,100960.56
2023-04-02T21:26:42.385Z,100954.78
2023-04-02T21:31:45.289Z,100956.72
2023-04-02T21:36:49.442Z,100948.19
2023-04-02T21:41:53.612Z,100964.84
2023-04-02T21:46:56.670Z,100959.75
2023-04-02T21:51:59.699Z,100948.53
2023-04-02T21:57:02.655Z,100941.72
2023-04-02T22:02:05.740Z,100931.53
2023-04-02T22:07:08.668Z,100929.84
2023-04-02T22:12:11.540Z,100955.22
2023-04-02T22:17:14.519Z,100954.44
2023-04-02T22:22:17.428Z,100944.13
2023-04-02T22:27:20.398Z,100945.94
2023-04-02T22:32:23.365Z,100945.09
2023-04-02T22:37:26.403Z,100919.06
2023-04-02T22:42:29.319Z,100938.16
2023-04-02T22:47:32.305Z,100920.00
2023-04-02T22:52:35.290Z,100928.66
2023-04-02T22:57:38.272Z,100895.94
2023-04-02T23:02:41.603Z,100922.97
2023-04-02T23:07:44.488Z,100908.31
2023-04-02T23:12:47.440Z,100929.25
2023-04-02T23:17:50.399Z,100924.19
2023-04-02T23:22:53.347Z,100913.78
2023-04-02T23:27:56.639Z,100918.94
2023-04-02T23:32:59.620Z,100924.00
2023-04-02T23:38:02.622Z,100918.75
2023-04-02T23:43:05.868Z,100932.66
2023-04-02T23:48:08.922Z,100934.38
2023-04-02T23:53:12.728Z,100917.19
2023-04-02T23:58:15.836Z,100939.75
